createdAt,value
2022-10-15T00:01:42.604Z,89.41
2022-10-15T00:04:10.684Z,89.70
2022-10-15T00:06:38.691Z,89.09
2022-10-15T00:09:06.760Z,89.23
2022-10-15T00:11:35.662Z,89.46
2022-10-15T00:14:05.112Z,89.89
2022-10-15T00:16:34.613Z,90.15
2022-10-15T00:19:02.640Z,90.29
2022-10-15T00:21:30.923Z,89.78
2022-10-15T00:23:59.098Z,90.44
2022-10-15T00:26:28.280Z,89.97
2022-10-15T00:28:58.351Z,90.08
2022-10-15T00:31:29.077Z,90.75
2022-10-15T00:33:59.614Z,90.84
2022-10-15T00:36:29.671Z,90.56
2022-10-15T00:39:22.921Z,90.30
2022-10-15T00:41:50.907Z,90.67
2022-10-15T00:44:56.858Z,90.54
2022-10-15T00:47:29.625Z,90.18
2022-10-15T00:50:06.352Z,89.95
2022-10-15T00:52:40.834Z,90.63
2022-10-15T00:55:13.313Z,90.80
2022-10-15T00:57:42.047Z,90.43
2022-10-15T01:00:12.532Z,91.07
2022-10-15T01:02:42.349Z,91.26
2022-10-15T01:05:10.819Z,91.24
2022-10-15T01:07:41.282Z,91.32
2022-10-15T01:10:10.665Z,90.65
2022-10-15T01:12:58.862Z,90.70
2022-10-15T01:15:28.291Z,91.35
2022-10-15T01:18:00.890Z,91.20
2022-10-15T01:20:53.593Z,91.89
2022-10-15T01:23:58.356Z,91.55
2022-10-15T01:27:00.125Z,91.74
2022-10-15T01:29:41.175Z,91.75
2022-10-15T01:32:14.957Z,92.15
2022-10-15T01:34:49.281Z,91.75
2022-10-15T01:37:21.561Z,92.05
2022-10-15T01:39:53.954Z,92.04
2022-10-15T01:42:30.177Z,92.36
2022-10-15T01:45:00.476Z,92.68
2022-10-15T01:47:41.705Z,91.98
2022-10-15T01:50:10.916Z,92.15
2022-10-15T01:52:39.783Z,92.43
2022-10-15T01:55:11.562Z,92.61
2022-10-15T01:58:04.922Z,93.21
2022-10-15T02:00:33.007Z,92.96
2022-10-15T02:03:05.502Z,93.49
2022-10-15T02:05:36.624Z,92.41
2022-10-15T02:08:11.239Z,92.48
2022-10-15T02:13:34.585Z,94.04
2022-10-15T02:16:05.159Z,94.93
2022-10-15T02:18:40.387Z,94.21
2022-10-15T02:21:12.026Z,93.72
2022-10-15T02:23:43.341Z,93.85
2022-10-15T02:26:12.163Z,92.65
2022-10-15T02:28:43.991Z,92.82
2022-10-15T02:31:13.952Z,92.40
2022-10-15T02:33:45.660Z,92.76
2022-10-15T02:36:16.225Z,92.50
2022-10-15T02:38:45.951Z,92.27
2022-10-15T02:41:14.628Z,92.69
2022-10-15T02:43:42.768Z,92.57
2022-10-15T02:46:14.067Z,92.82
2022-10-15T02:48:45.108Z,92.39
2022-10-15T02:51:16.596Z,92.71
2022-10-15T02:53:44.620Z,92.85
2022-10-15T02:56:12.734Z,93.07
2022-10-15T02:58:40.864Z,92.67
2022-10-15T03:01:09.410Z,93.48
2022-10-15T03:03:37.698Z,93.14
2022-10-15T03:06:08.004Z,93.40
2022-10-15T03:08:36.106Z,94.04
2022-10-15T03:11:05.572Z,93.33
2022-10-15T03:13:36.825Z,93.37
2022-10-15T03:16:06.663Z,93.57
2022-10-15T03:18:38.161Z,93.92
2022-10-15T03:21:20.696Z,92.98
2022-10-15T03:23:49.000Z,93.27
2022-10-15T03:26:21.273Z,93.28
2022-10-15T03:28:50.443Z,94.05
2022-10-15T03:31:31.937Z,94.15
2022-10-15T03:34:03.201Z,94.30
2022-10-15T03:36:33.383Z,93.83
2022-10-15T03:39:02.219Z,93.83
2022-10-15T03:41:54.985Z,94.66
2022-10-15T03:44:30.199Z,93.96
2022-10-15T03:47:08.135Z,94.45
2022-10-15T03:49:47.512Z,94.80
2022-10-15T03:52:17.728Z,94.36
2022-10-15T03:54:47.551Z,94.34
2022-10-15T03:57:18.479Z,93.86
2022-10-15T03:59:51.485Z,93.98
2022-10-15T04:02:22.121Z,94.36
2022-10-15T04:04:52.643Z,94.27
2022-10-15T04:07:22.268Z,94.84
2022-10-15T04:09:50.586Z,94.78
2022-10-15T04:12:25.180Z,94.37
2022-10-15T04:14:53.621Z,94.84
2022-10-15T04:17:21.722Z,94.17
2022-10-15T04:19:50.767Z,94.75
2022-10-15T04:22:18.881Z,95.07
2022-10-15T04:24:54.989Z,94.95
2022-10-15T04:27:29.980Z,94.82
2022-10-15T04:30:08.619Z,95.15
2022-10-15T04:32:39.549Z,95.04
2022-10-15T04:35:08.324Z,94.70
2022-10-15T04:38:02.268Z,94.78
2022-10-15T04:40:51.587Z,94.69
2022-10-15T04:43:19.595Z,95.26
2022-10-15T04:45:49.216Z,94.98
2022-10-15T04:48:20.425Z,94.83
2022-10-15T04:50:48.456Z,94.89
2022-10-15T04:53:20.111Z,94.90
2022-10-15T04:55:53.645Z,95.84
2022-10-15T04:58:21.952Z,95.68
2022-10-15T05:00:50.108Z,95.49
2022-10-15T05:06:07.100Z,95.42
2022-10-15T05:08:36.172Z,95.87
2022-10-15T05:11:20.634Z,96.32
2022-10-15T05:13:49.276Z,96.24
2022-10-15T05:16:18.753Z,96.37
2022-10-15T05:18:49.207Z,96.11
2022-10-15T05:21:21.234Z,96.24
2022-10-15T05:23:52.787Z,96.40
2022-10-15T05:26:40.764Z,97.31
2022-10-15T05:29:10.300Z,97.51
2022-10-15T05:31:39.420Z,97.71
2022-10-15T05:34:18.537Z,97.44
2022-10-15T05:36:58.214Z,98.01
2022-10-15T05:39:26.191Z,98.22
2022-10-15T05:41:56.997Z,98.44
2022-10-15T05:44:35.853Z,98.24
2022-10-15T05:47:03.872Z,98.57
2022-10-15T05:49:32.473Z,99.47
2022-10-15T05:52:10.598Z,99.98
2022-10-15T05:55:04.203Z,100.00
2022-10-15T05:57:33.538Z,100.00
2022-10-15T06:00:05.962Z,100.00
2022-10-15T06:02:40.356Z,100.00
2022-10-15T06:05:08.898Z,100.00
2022-10-15T06:07:36.876Z,100.00
2022-10-15T06:10:06.950Z,100.00
2022-10-15T06:12:38.360Z,100.00
2022-10-15T06:15:07.329Z,100.00
2022-10-15T06:17:35.429Z,100.00
2022-10-15T06:20:03.450Z,100.00
2022-10-15T06:22:32.063Z,100.00
2022-10-15T06:25:00.129Z,100.00
2022-10-15T06:27:29.365Z,100.00
2022-10-15T06:29:58.715Z,100.00
2022-10-15T06:32:26.729Z,100.00
2022-10-15T06:34:54.888Z,100.00
2022-10-15T06:37:23.227Z,100.00
2022-10-15T06:39:52.319Z,100.00
2022-10-15T06:42:20.330Z,100.00
2022-10-15T06:44:49.203Z,100.00
2022-10-15T06:47:19.631Z,100.00
2022-10-15T06:49:48.536Z,100.00
2022-10-15T06:52:16.588Z,100.00
2022-10-15T06:54:44.657Z,100.00
2022-10-15T06:57:12.762Z,100.00
2022-10-15T06:59:41.574Z,100.00
2022-10-15T07:02:10.281Z,100.00
2022-10-15T07:04:39.717Z,100.00
2022-10-15T07:07:07.691Z,100.00
2022-10-15T07:09:36.747Z,100.00
2022-10-15T07:12:05.357Z,100.00
2022-10-15T07:14:34.346Z,100.00
2022-10-15T07:17:04.874Z,100.00
2022-10-15T07:19:32.958Z,100.00
2022-10-15T07:22:02.390Z,100.00
2022-10-15T07:24:30.529Z,100.00
2022-10-15T07:26:58.545Z,100.00
2022-10-15T07:29:26.535Z,100.00
2022-10-15T07:31:54.814Z,100.00
2022-10-15T07:34:23.004Z,100.00
2022-10-15T07:36:51.028Z,100.00
2022-10-15T07:39:20.477Z,100.00
2022-10-15T07:41:48.463Z,100.00
2022-10-15T07:44:16.662Z,100.00
2022-10-15T07:46:44.711Z,100.00
2022-10-15T07:49:12.819Z,100.00
2022-10-15T07:51:40.893Z,100.00
2022-10-15T07:54:08.892Z,100.00
2022-10-15T07:56:38.240Z,100.00
2022-10-15T07:59:06.201Z,100.00
2022-10-15T08:01:34.221Z,100.00
2022-10-15T08:04:02.282Z,100.00
2022-10-15T08:06:30.281Z,100.00
2022-10-15T08:08:58.374Z,100.00
2022-10-15T08:11:29.976Z,100.00
2022-10-15T08:13:59.684Z,100.00
2022-10-15T08:16:27.770Z,100.00
2022-10-15T08:19:01.990Z,100.00
2022-10-15T08:21:30.147Z,100.00
2022-10-15T08:23:58.194Z,99.61
2022-10-15T08:26:34.593Z,99.69
2022-10-15T08:29:04.165Z,100.00
2022-10-15T08:31:32.731Z,99.56
2022-10-15T08:34:01.262Z,99.58
2022-10-15T08:36:29.866Z,98.98
2022-10-15T08:38:57.884Z,98.48
2022-10-15T08:41:31.142Z,98.71
2022-10-15T08:43:59.822Z,98.94
2022-10-15T08:46:36.448Z,98.61
2022-10-15T08:49:04.834Z,99.00
2022-10-15T08:51:38.726Z,98.61
2022-10-15T08:54:07.659Z,98.80
2022-10-15T08:56:39.266Z,98.53
2022-10-15T08:59:16.401Z,97.74
2022-10-15T09:01:49.373Z,97.77
2022-10-15T09:07:05.563Z,96.77
2022-10-15T09:09:38.731Z,96.84
2022-10-15T09:12:15.413Z,96.91
2022-10-15T09:14:45.010Z,97.12
2022-10-15T09:17:22.849Z,97.76
2022-10-15T09:19:56.171Z,97.68
2022-10-15T09:22:26.114Z,97.41
2022-10-15T09:24:54.620Z,98.13
2022-10-15T09:27:30.284Z,96.84
2022-10-15T09:30:05.348Z,97.00
2022-10-15T09:32:37.821Z,97.02
2022-10-15T09:35:15.186Z,96.53
2022-10-15T09:37:49.991Z,96.49
2022-10-15T09:40:28.450Z,96.34
2022-10-15T09:42:57.659Z,95.38
2022-10-15T09:45:25.797Z,94.89
2022-10-15T09:48:00.243Z,95.75
2022-10-15T09:50:32.381Z,95.31
2022-10-15T09:53:06.845Z,94.84
2022-10-15T09:55:42.159Z,94.24
2022-10-15T09:58:14.381Z,95.04
2022-10-15T10:00:58.874Z,94.02
2022-10-15T10:03:34.165Z,93.23
2022-10-15T10:06:04.590Z,92.86
2022-10-15T10:08:40.131Z,92.78
2022-10-15T10:11:09.931Z,93.30
2022-10-15T10:13:41.686Z,93.12
2022-10-15T10:16:11.178Z,92.59
2022-10-15T10:18:41.871Z,90.72
2022-10-15T10:21:24.187Z,91.39
2022-10-15T10:23:52.232Z,92.02
2022-10-15T10:26:21.853Z,91.14
2022-10-15T10:28:57.046Z,88.74
2022-10-15T10:31:40.032Z,88.85
2022-10-15T10:34:15.984Z,87.38
2022-10-15T10:36:50.067Z,85.90
2022-10-15T10:39:26.558Z,84.57
2022-10-15T10:41:56.150Z,82.93
2022-10-15T10:44:29.136Z,82.43
2022-10-15T10:47:11.721Z,81.46
2022-10-15T10:49:42.884Z,83.41
2022-10-15T10:52:28.081Z,83.01
2022-10-15T10:55:01.335Z,81.79
2022-10-15T10:57:40.737Z,79.86
2022-10-15T11:00:12.525Z,80.81
2022-10-15T11:02:43.895Z,80.34
2022-10-15T11:05:14.109Z,80.22
2022-10-15T11:07:48.599Z,78.89
2022-10-15T11:10:20.990Z,79.99
2022-10-15T11:13:06.508Z,79.11
2022-10-15T11:15:44.599Z,79.24
2022-10-15T11:18:26.278Z,78.83
2022-10-15T11:21:03.143Z,79.44
2022-10-15T11:23:48.438Z,79.33
2022-10-15T11:26:37.105Z,81.07
2022-10-15T11:29:12.280Z,80.10
2022-10-15T11:32:01.674Z,79.66
2022-10-15T11:34:40.695Z,79.25
2022-10-15T11:37:20.264Z,78.40
2022-10-15T11:39:59.048Z,80.22
2022-10-15T11:42:33.960Z,81.03
2022-10-15T11:45:11.883Z,79.25
2022-10-15T11:47:49.086Z,80.38
2022-10-15T11:50:31.914Z,80.54
2022-10-15T11:53:17.148Z,79.57
2022-10-15T11:55:52.029Z,80.06
2022-10-15T11:58:25.320Z,80.67
2022-10-15T12:00:57.068Z,79.71
2022-10-15T12:03:27.199Z,79.25
2022-10-15T12:06:00.122Z,78.86
2022-10-15T12:08:36.402Z,78.30
2022-10-15T12:11:13.352Z,78.57
2022-10-15T12:13:46.241Z,77.59
2022-10-15T12:16:20.638Z,77.53
2022-10-15T12:18:52.455Z,76.35
2022-10-15T12:21:35.770Z,76.65
2022-10-15T12:24:10.585Z,75.19
2022-10-15T12:26:38.816Z,75.44
2022-10-15T12:29:17.829Z,76.57
2022-10-15T12:31:48.688Z,74.75
2022-10-15T12:34:32.244Z,75.88
2022-10-15T12:37:05.332Z,75.54
2022-10-15T12:42:28.257Z,74.13
2022-10-15T12:44:57.179Z,72.80
2022-10-15T12:47:47.427Z,75.41
2022-10-15T12:50:19.973Z,73.79
2022-10-15T12:52:57.332Z,74.42
2022-10-15T12:55:36.918Z,74.37
2022-10-15T12:58:07.505Z,74.28
2022-10-15T13:00:43.560Z,74.74
2022-10-15T13:03:34.465Z,73.64
2022-10-15T13:06:16.537Z,74.71
2022-10-15T13:08:45.960Z,74.39
2022-10-15T13:11:41.999Z,73.44
2022-10-15T13:14:19.132Z,74.10
2022-10-15T13:16:48.696Z,72.33
2022-10-15T13:19:20.476Z,71.68
2022-10-15T13:21:50.988Z,72.66
2022-10-15T13:24:20.340Z,72.30
2022-10-15T13:26:50.179Z,70.44
2022-10-15T13:29:19.390Z,73.14
2022-10-15T13:31:48.223Z,70.59
2022-10-15T13:34:26.986Z,70.28
2022-10-15T13:36:56.007Z,70.86
2022-10-15T13:39:31.984Z,71.86
2022-10-15T13:42:16.133Z,70.36
2022-10-15T13:44:45.621Z,70.22
2022-10-15T13:47:31.797Z,71.29
2022-10-15T13:50:12.993Z,71.55
2022-10-15T13:52:42.362Z,70.96
2022-10-15T13:55:19.492Z,72.15
2022-10-15T13:57:50.446Z,71.78
2022-10-15T14:00:24.598Z,72.16
2022-10-15T14:03:09.006Z,70.72
2022-10-15T14:05:37.122Z,69.79
2022-10-15T14:08:05.528Z,70.81
2022-10-15T14:10:33.624Z,69.79
2022-10-15T14:13:02.996Z,69.66
2022-10-15T14:15:45.405Z,69.08
2022-10-15T14:18:15.215Z,68.71
2022-10-15T14:20:47.111Z,69.85
2022-10-15T14:23:22.166Z,68.88
2022-10-15T14:25:54.836Z,69.60
2022-10-15T14:28:25.047Z,69.42
2022-10-15T14:30:53.642Z,70.63
2022-10-15T14:33:33.269Z,69.82
2022-10-15T14:36:10.797Z,67.81
2022-10-15T14:38:39.083Z,70.02
2022-10-15T14:41:22.637Z,68.39
2022-10-15T14:44:17.914Z,69.19
2022-10-15T14:46:48.925Z,67.63
2022-10-15T14:49:28.006Z,67.77
2022-10-15T14:51:58.188Z,68.33
2022-10-15T14:54:31.162Z,69.37
2022-10-15T14:56:59.276Z,70.93
2022-10-15T14:59:33.132Z,68.16
2022-10-15T15:02:03.342Z,69.40
2022-10-15T15:04:42.962Z,67.18
2022-10-15T15:07:15.832Z,67.94
2022-10-15T15:09:43.933Z,68.89
2022-10-15T15:12:16.969Z,67.61
2022-10-15T15:14:46.548Z,68.36
2022-10-15T15:17:17.244Z,67.37
2022-10-15T15:19:45.337Z,67.63
2022-10-15T15:22:15.641Z,67.98
2022-10-15T15:24:43.805Z,67.60
2022-10-15T15:27:22.755Z,68.29
2022-10-15T15:29:52.835Z,68.71
2022-10-15T15:32:21.785Z,69.43
2022-10-15T15:34:50.633Z,69.03
2022-10-15T15:37:20.495Z,68.85
2022-10-15T15:39:48.547Z,68.48
2022-10-15T15:42:18.039Z,68.96
2022-10-15T15:44:46.360Z,69.20
2022-10-15T15:47:15.921Z,68.93
2022-10-15T15:49:44.214Z,68.51
2022-10-15T15:52:14.051Z,68.70
2022-10-15T15:54:42.116Z,69.20
2022-10-15T15:57:10.381Z,70.01
2022-10-15T16:00:03.225Z,70.36
2022-10-15T16:02:34.521Z,70.42
2022-10-15T16:05:02.830Z,70.34
2022-10-15T16:07:31.278Z,70.13
2022-10-15T16:09:59.441Z,70.14
2022-10-15T16:12:27.485Z,70.39
2022-10-15T16:14:55.788Z,70.32
2022-10-15T16:17:24.783Z,70.49
2022-10-15T16:19:54.526Z,70.55
2022-10-15T16:22:22.669Z,70.69
2022-10-15T16:24:50.809Z,70.24
2022-10-15T16:27:18.850Z,70.63
2022-10-15T16:29:46.900Z,70.85
2022-10-15T16:32:15.123Z,70.69
2022-10-15T16:34:43.119Z,70.53
2022-10-15T16:37:12.567Z,70.34
2022-10-15T16:39:40.691Z,70.14
2022-10-15T16:42:09.375Z,70.30
2022-10-15T16:44:37.477Z,70.77
2022-10-15T16:47:05.556Z,70.81
2022-10-15T16:49:33.602Z,70.83
2022-10-15T16:52:01.666Z,71.09
2022-10-15T16:54:31.048Z,71.45
2022-10-15T16:57:00.183Z,71.34
2022-10-15T16:59:28.481Z,71.14
2022-10-15T17:01:56.715Z,71.75
2022-10-15T17:04:24.732Z,70.98
2022-10-15T17:06:52.725Z,71.29
2022-10-15T17:09:21.077Z,71.02
2022-10-15T17:11:50.876Z,71.23
2022-10-15T17:14:19.334Z,70.90
2022-10-15T17:16:48.557Z,70.92
2022-10-15T17:19:18.698Z,71.02
2022-10-15T17:22:35.959Z,71.29
2022-10-15T17:25:04.212Z,71.28
2022-10-15T17:27:35.664Z,71.17
2022-10-15T17:30:03.746Z,71.57
2022-10-15T17:32:31.759Z,71.37
2022-10-15T17:35:03.845Z,71.57
2022-10-15T17:37:32.444Z,72.08
2022-10-15T17:40:00.722Z,72.42
2022-10-15T17:42:28.904Z,72.48
2022-10-15T17:44:58.319Z,72.82
2022-10-15T17:47:26.584Z,73.02
2022-10-15T17:49:54.979Z,73.30
2022-10-15T17:52:22.965Z,73.20
2022-10-15T17:54:51.625Z,73.33
2022-10-15T17:57:19.617Z,73.50
2022-10-15T17:59:50.428Z,73.79
2022-10-15T18:02:20.761Z,73.96
2022-10-15T18:04:49.275Z,74.22
2022-10-15T18:07:19.777Z,74.81
2022-10-15T18:09:47.764Z,74.72
2022-10-15T18:12:15.730Z,74.84
2022-10-15T18:14:43.751Z,74.80
2022-10-15T18:17:12.063Z,74.60
2022-10-15T18:19:41.522Z,75.06
2022-10-15T18:22:09.495Z,74.60
2022-10-15T18:24:37.560Z,74.56
2022-10-15T18:27:05.871Z,74.53
2022-10-15T18:29:34.767Z,74.64
2022-10-15T18:32:02.937Z,74.76
2022-10-15T18:34:33.287Z,74.78
2022-10-15T18:37:02.670Z,74.85
2022-10-15T18:39:30.674Z,75.07
2022-10-15T18:41:58.732Z,75.07
2022-10-15T18:44:28.649Z,75.51
2022-10-15T18:46:56.667Z,75.67
2022-10-15T18:49:24.695Z,76.05
2022-10-15T18:51:54.083Z,76.31
2022-10-15T18:54:24.017Z,76.36
2022-10-15T18:56:53.046Z,76.75
2022-10-15T18:59:21.867Z,76.65
2022-10-15T19:01:50.839Z,76.93
2022-10-15T19:04:19.829Z,76.91
2022-10-15T19:06:49.609Z,77.14
2022-10-15T19:09:19.503Z,77.17
2022-10-15T19:11:50.600Z,77.21
2022-10-15T19:14:18.862Z,77.27
2022-10-15T19:16:47.970Z,77.32
2022-10-15T19:19:17.550Z,78.15
2022-10-15T19:21:46.007Z,77.86
2022-10-15T19:24:15.411Z,78.00
2022-10-15T19:26:43.765Z,78.03
2022-10-15T19:29:13.197Z,77.90
2022-10-15T19:31:42.963Z,78.03
2022-10-15T19:34:11.390Z,78.21
2022-10-15T19:36:41.581Z,78.44
2022-10-15T19:39:12.713Z,78.45
2022-10-15T19:41:42.347Z,78.33
2022-10-15T19:44:13.382Z,78.28
2022-10-15T19:46:41.832Z,78.09
2022-10-15T19:49:12.290Z,78.22
2022-10-15T19:51:40.279Z,78.28
2022-10-15T19:54:08.434Z,78.30
2022-10-15T19:56:36.520Z,78.32
2022-10-15T19:59:06.022Z,78.68
2022-10-15T20:01:35.534Z,79.08
2022-10-15T20:04:06.464Z,79.22
2022-10-15T20:06:35.625Z,79.43
2022-10-15T20:09:03.970Z,79.34
2022-10-15T20:11:32.304Z,79.53
2022-10-15T20:14:00.471Z,79.60
2022-10-15T20:16:32.485Z,79.96
2022-10-15T20:19:03.488Z,80.16
2022-10-15T20:21:32.122Z,79.83
2022-10-15T20:24:03.844Z,80.28
2022-10-15T20:26:31.902Z,80.07
2022-10-15T20:29:00.047Z,80.09
2022-10-15T20:31:32.774Z,80.26
2022-10-15T20:34:03.199Z,80.15
2022-10-15T20:36:31.280Z,80.12
2022-10-15T20:39:00.658Z,80.57
2022-10-15T20:41:28.823Z,80.56
2022-10-15T20:43:57.260Z,80.96
2022-10-15T20:46:28.348Z,81.04
2022-10-15T20:48:57.388Z,80.99
2022-10-15T20:51:28.604Z,80.95
2022-10-15T20:53:57.136Z,80.78
2022-10-15T20:56:25.311Z,80.84
2022-10-15T20:58:53.426Z,80.81
2022-10-15T21:01:21.609Z,80.97
2022-10-15T21:03:49.662Z,81.11
2022-10-15T21:06:17.728Z,80.94
2022-10-15T21:08:47.119Z,81.46
2022-10-15T21:11:15.334Z,81.50
2022-10-15T21:13:43.422Z,81.35
2022-10-15T21:16:11.780Z,81.13
2022-10-15T21:18:39.845Z,81.67
2022-10-15T21:21:09.636Z,81.58
2022-10-15T21:23:38.658Z,81.65
2022-10-15T21:26:09.281Z,81.72
2022-10-15T21:28:37.695Z,81.71
2022-10-15T21:31:06.436Z,81.54
2022-10-15T21:33:36.010Z,82.15
2022-10-15T21:36:11.764Z,82.63
2022-10-15T21:38:39.749Z,82.81
2022-10-15T21:41:09.412Z,82.52
2022-10-15T21:43:37.459Z,82.54
2022-10-15T21:46:07.527Z,82.67
2022-10-15T21:48:36.695Z,82.79
2022-10-15T21:51:04.852Z,82.71
2022-10-15T21:53:33.990Z,82.64
2022-10-15T21:56:02.365Z,82.52
2022-10-15T21:58:31.804Z,82.86
2022-10-15T22:01:08.444Z,82.89
2022-10-15T22:03:36.562Z,82.98
2022-10-15T22:06:05.171Z,82.82
2022-10-15T22:08:33.552Z,82.56
2022-10-15T22:11:12.007Z,82.59
2022-10-15T22:13:42.801Z,82.75
2022-10-15T22:16:11.288Z,83.13
2022-10-15T22:18:40.747Z,83.02
2022-10-15T22:21:15.036Z,83.14
2022-10-15T22:23:44.212Z,82.83
2022-10-15T22:26:12.540Z,83.07
2022-10-15T22:28:42.288Z,83.13
2022-10-15T22:31:12.664Z,83.64
2022-10-15T22:33:41.699Z,83.56
2022-10-15T22:36:14.999Z,83.27
2022-10-15T22:38:45.055Z,82.91
2022-10-15T22:41:13.582Z,83.51
2022-10-15T22:43:43.214Z,83.48
2022-10-15T22:46:11.761Z,83.22
2022-10-15T22:48:41.221Z,83.10
2022-10-15T22:51:11.057Z,82.97
2022-10-15T22:53:39.409Z,83.33
2022-10-15T22:56:09.060Z,84.40
2022-10-15T22:58:37.670Z,84.37
2022-10-15T23:01:12.089Z,84.42
2022-10-15T23:03:40.606Z,84.25
2022-10-15T23:06:08.763Z,84.51
2022-10-15T23:08:37.243Z,84.65
2022-10-15T23:11:09.995Z,84.46
2022-10-15T23:13:38.722Z,84.95
2022-10-15T23:16:14.748Z,84.96
2022-10-15T23:18:44.600Z,84.93
2022-10-15T23:21:14.917Z,84.91
2022-10-15T23:24:08.000Z,84.81
2022-10-15T23:26:36.639Z,84.54
2022-10-15T23:29:06.425Z,84.90
2022-10-15T23:31:36.898Z,84.89
2022-10-15T23:34:06.623Z,85.05
2022-10-15T23:36:35.251Z,84.92
2022-10-15T23:39:05.505Z,84.20
2022-10-15T23:41:34.011Z,84.38
2022-10-15T23:44:02.019Z,84.41
2022-10-15T23:46:30.057Z,84.59
2022-10-15T23:48:59.409Z,84.55
2022-10-15T23:51:28.970Z,84.52
2022-10-15T23:53:59.544Z,84.73
2022-10-15T23:56:27.960Z,84.71
2022-10-15T23:58:58.296Z,84.89
